PWSweather.com
Personal Weather Stations
Station Observations
MENWDWX1
Menstrie, ScotlandGB

MenstrieScotlandGB

Lat: 56.148322, Lon: -3.85483

Elevation: 62

Station Type: Davis Vantage Pro 2

High Low Average
Temperature 41.8°F5.4°C 33.0°F0.6°C 36.3°F2.4°C
Dew Point 35.9°F2.2°C 27.5°F-2.5°C 30.2°F-1.0°C
Winds 13.8 mph 22.2 kmh Calm Calm 6.0 mph W9.7 kmh W
Wind Gusts 19.6 mph31.5 kmh -- 9.0 mph14.5 kmh
Humidity 81% 75% 79%
Pressure 29.46 in997.6 mb 29.19 in988.5 mb -
Precipitation 0.25 in6.4 mm - -
Hour Temp Dew Point Humidity Winds Wind Gusts Pressure Precip Precip Rate Daily Precip Total
12:00 AM 40.9°F4.9°C 34.9°F1.6°C 79% 4.6 mph SW7.4 kmh SW 5.8 mph9.3 kmh 29.46 in997.6 mb - 0.00 in0.0 mm 0.00 in0.0 mm
12:05 AM 41.2°F5.1°C 35.2°F1.8°C 79% 4.6 mph SW7.4 kmh SW 10.4 mph16.7 kmh 29.45 in997.3 mb - 0.00 in0.0 mm 0.00 in0.0 mm
12:10 AM 41.4°F5.2°C 35.4°F1.9°C 79% 8.1 mph WSW13.0 kmh WSW 11.5 mph18.5 kmh 29.45 in997.3 mb - 0.00 in0.0 mm 0.00 in0.0 mm
12:15 AM 41.7°F5.4°C 35.9°F2.2°C 80% 8.1 mph SW13.0 kmh SW 11.5 mph18.5 kmh 29.44 in997.0 mb - 0.00 in0.0 mm 0.00 in0.0 mm
12:20 AM 41.8°F5.4°C 35.8°F2.1°C 79% 8.1 mph WSW13.0 kmh WSW 12.7 mph20.4 kmh 29.44 in997.0 mb - 0.01 in0.3 mm 0.01 in0.3 mm
12:25 AM 41.8°F5.4°C 35.8°F2.1°C 79% 6.9 mph WSW11.1 kmh WSW 11.5 mph18.5 kmh 29.45 in997.3 mb - 0.01 in0.3 mm 0.02 in0.5 mm
12:30 AM 41.8°F5.4°C 35.8°F2.1°C 79% 6.9 mph WSW11.1 kmh WSW 10.4 mph16.7 kmh 29.44 in997.0 mb - 0.00 in0.0 mm 0.02 in0.5 mm
12:35 AM 41.6°F5.3°C 35.6°F2.0°C 79% 8.1 mph WSW13.0 kmh WSW 9.2 mph14.8 kmh 29.43 in996.6 mb - 0.00 in0.0 mm 0.02 in0.5 mm
12:40 AM 41.4°F5.2°C 35.1°F1.7°C 78% 6.9 mph WSW11.1 kmh WSW 11.5 mph18.5 kmh 29.43 in996.6 mb - 0.00 in0.0 mm 0.02 in0.5 mm
12:45 AM 41.2°F5.1°C 34.9°F1.6°C 78% 2.3 mph W3.7 kmh W 3.5 mph5.6 kmh 29.42 in996.3 mb - 0.00 in0.0 mm 0.02 in0.5 mm
12:50 AM 41.1°F5.1°C 34.8°F1.6°C 78% 2.3 mph WNW3.7 kmh WNW 3.5 mph5.6 kmh 29.41 in995.9 mb - 0.00 in0.0 mm 0.02 in0.5 mm
12:55 AM 41.0°F5.0°C 34.7°F1.5°C 78% 3.5 mph W5.6 kmh W 6.9 mph11.1 kmh 29.41 in995.9 mb - 0.00 in0.0 mm 0.02 in0.5 mm
01:00 AM 40.9°F4.9°C 34.5°F1.4°C 78% 4.6 mph W7.4 kmh W 8.1 mph13.0 kmh 29.41 in995.9 mb - 0.00 in0.0 mm 0.02 in0.5 mm
01:05 AM 40.7°F4.8°C 34.4°F1.3°C 78% 4.6 mph W7.4 kmh W 5.8 mph9.3 kmh 29.41 in995.9 mb - 0.01 in0.3 mm 0.03 in0.8 mm
01:10 AM 40.6°F4.8°C 34.3°F1.3°C 78% 9.2 mph WNW14.8 kmh WNW 15.0 mph24.1 kmh 29.41 in995.9 mb - 0.01 in0.3 mm 0.03 in0.8 mm
01:15 AM 40.2°F4.6°C 33.9°F1.1°C 78% 9.2 mph W14.8 kmh W 12.7 mph20.4 kmh 29.41 in995.9 mb - 0.04 in1.0 mm 0.07 in1.8 mm
01:20 AM 39.8°F4.3°C 33.5°F0.8°C 78% 8.1 mph WSW13.0 kmh WSW 11.5 mph18.5 kmh 29.41 in995.9 mb - 0.02 in0.5 mm 0.08 in2.0 mm
01:25 AM 39.7°F4.3°C 33.7°F0.9°C 79% 9.2 mph W14.8 kmh W 16.1 mph25.9 kmh 29.40 in995.6 mb - 0.02 in0.5 mm 0.10 in2.5 mm
01:30 AM 39.5°F4.2°C 33.5°F0.8°C 79% 6.9 mph WSW11.1 kmh WSW 10.4 mph16.7 kmh 29.40 in995.6 mb - 0.02 in0.5 mm 0.12 in3.0 mm
01:35 AM 39.2°F4.0°C 33.2°F0.7°C 79% 8.1 mph WSW13.0 kmh WSW 11.5 mph18.5 kmh 29.39 in995.3 mb - 0.02 in0.5 mm 0.13 in3.3 mm
01:40 AM 39.1°F3.9°C 33.1°F0.6°C 79% 4.6 mph WSW7.4 kmh WSW 5.8 mph9.3 kmh 29.39 in995.3 mb - 0.00 in0.0 mm 0.13 in3.3 mm
01:45 AM 38.9°F3.8°C 32.9°F0.5°C 79% 4.6 mph W7.4 kmh W 3.5 mph5.6 kmh 29.39 in995.3 mb - 0.00 in0.0 mm 0.13 in3.3 mm
01:50 AM 38.7°F3.7°C 32.7°F0.4°C 79% 3.5 mph W5.6 kmh W 5.8 mph9.3 kmh 29.39 in995.3 mb - 0.00 in0.0 mm 0.13 in3.3 mm
01:55 AM 38.6°F3.7°C 33.0°F0.6°C 80% 10.4 mph W16.7 kmh W 19.6 mph31.5 kmh 29.39 in995.3 mb - 0.00 in0.0 mm 0.13 in3.3 mm
02:00 AM 38.6°F3.7°C 33.0°F0.6°C 80% 12.7 mph W20.4 kmh W 16.1 mph25.9 kmh 29.39 in995.3 mb - 0.01 in0.3 mm 0.14 in3.6 mm
02:05 AM 38.5°F3.6°C 32.6°F0.3°C 79% 5.8 mph W9.3 kmh W 10.4 mph16.7 kmh 29.38 in994.9 mb - 0.01 in0.3 mm 0.14 in3.6 mm
02:10 AM 38.3°F3.5°C 32.4°F0.2°C 79% 9.2 mph W14.8 kmh W 13.8 mph22.2 kmh 29.38 in994.9 mb - 0.00 in0.0 mm 0.14 in3.6 mm
02:15 AM 38.1°F3.4°C 32.2°F0.1°C 79% 6.9 mph W11.1 kmh W 11.5 mph18.5 kmh 29.37 in994.6 mb - 0.00 in0.0 mm 0.14 in3.6 mm
02:20 AM 38.0°F3.3°C 32.1°F0.1°C 79% 5.8 mph W9.3 kmh W 9.2 mph14.8 kmh 29.37 in994.6 mb - 0.00 in0.0 mm 0.14 in3.6 mm
02:25 AM 37.9°F3.3°C 32.0°F0.0°C 79% 5.8 mph W9.3 kmh W 8.1 mph13.0 kmh 29.37 in994.6 mb - 0.00 in0.0 mm 0.14 in3.6 mm
02:30 AM 37.8°F3.2°C 31.6°F-0.2°C 78% 3.5 mph W5.6 kmh W 6.9 mph11.1 kmh 29.36 in994.2 mb - 0.00 in0.0 mm 0.14 in3.6 mm
02:35 AM 37.8°F3.2°C 31.5°F-0.3°C 78% 3.5 mph W5.6 kmh W 5.8 mph9.3 kmh 29.37 in994.6 mb - 0.00 in0.0 mm 0.14 in3.6 mm
02:40 AM 37.7°F3.2°C 31.5°F-0.3°C 78% 2.3 mph SW3.7 kmh SW 3.5 mph5.6 kmh 29.37 in994.6 mb - 0.00 in0.0 mm 0.14 in3.6 mm
02:45 AM 37.7°F3.2°C 31.5°F-0.3°C 78% 1.2 mph WSW1.9 kmh WSW 5.8 mph9.3 kmh 29.37 in994.6 mb - 0.00 in0.0 mm 0.14 in3.6 mm
02:50 AM 37.6°F3.1°C 31.4°F-0.3°C 78% Calm Calm -- 29.36 in994.2 mb - 0.00 in0.0 mm 0.14 in3.6 mm
02:55 AM 37.6°F3.1°C 31.4°F-0.3°C 78% Calm Calm 3.5 mph5.6 kmh 29.36 in994.2 mb - 0.00 in0.0 mm 0.14 in3.6 mm
03:00 AM 37.6°F3.1°C 31.3°F-0.4°C 78% 5.8 mph WNW9.3 kmh WNW 8.1 mph13.0 kmh 29.36 in994.2 mb - 0.00 in0.0 mm 0.14 in3.6 mm
03:05 AM 37.5°F3.1°C 31.6°F-0.2°C 79% 3.5 mph SW5.6 kmh SW 5.8 mph9.3 kmh 29.36 in994.2 mb - 0.00 in0.0 mm 0.14 in3.6 mm
03:10 AM 37.6°F3.1°C 31.4°F-0.3°C 78% 5.8 mph WSW9.3 kmh WSW 9.2 mph14.8 kmh 29.36 in994.2 mb - 0.00 in0.0 mm 0.14 in3.6 mm
03:15 AM 37.8°F3.2°C 31.6°F-0.2°C 78% 8.1 mph W13.0 kmh W 11.5 mph18.5 kmh 29.36 in994.2 mb - 0.00 in0.0 mm 0.14 in3.6 mm
03:20 AM 37.8°F3.2°C 31.6°F-0.2°C 78% 4.6 mph WNW7.4 kmh WNW 5.8 mph9.3 kmh 29.35 in993.9 mb - 0.00 in0.0 mm 0.14 in3.6 mm
03:25 AM 37.8°F3.2°C 31.5°F-0.3°C 78% 6.9 mph W11.1 kmh W 11.5 mph18.5 kmh 29.35 in993.9 mb - 0.00 in0.0 mm 0.14 in3.6 mm
03:30 AM 37.6°F3.1°C 31.4°F-0.3°C 78% 12.7 mph WSW20.4 kmh WSW 17.3 mph27.8 kmh 29.35 in993.9 mb - 0.01 in0.3 mm 0.15 in3.8 mm
03:35 AM 37.4°F3.0°C 31.2°F-0.4°C 78% 10.4 mph WSW16.7 kmh WSW 15.0 mph24.1 kmh 29.35 in993.9 mb - 0.00 in0.0 mm 0.15 in3.8 mm
03:40 AM 37.2°F2.9°C 31.3°F-0.4°C 79% 6.9 mph W11.1 kmh W 10.4 mph16.7 kmh 29.35 in993.9 mb - 0.00 in0.0 mm 0.15 in3.8 mm
03:45 AM 37.0°F2.8°C 31.1°F-0.5°C 79% 4.6 mph W7.4 kmh W 9.2 mph14.8 kmh 29.34 in993.6 mb - 0.00 in0.0 mm 0.15 in3.8 mm
03:50 AM 36.8°F2.7°C 30.9°F-0.6°C 79% 6.9 mph W11.1 kmh W 9.2 mph14.8 kmh 29.34 in993.6 mb - 0.00 in0.0 mm 0.15 in3.8 mm
03:55 AM 36.6°F2.6°C 30.7°F-0.7°C 79% 3.5 mph WSW5.6 kmh WSW 6.9 mph11.1 kmh 29.34 in993.6 mb - 0.00 in0.0 mm 0.15 in3.8 mm
04:00 AM 36.4°F2.4°C 30.5°F-0.8°C 79% 3.5 mph W5.6 kmh W 3.5 mph5.6 kmh 29.33 in993.2 mb - 0.00 in0.0 mm 0.15 in3.8 mm
04:05 AM 36.1°F2.3°C 30.2°F-1.0°C 79% 3.5 mph WSW5.6 kmh WSW 4.6 mph7.4 kmh 29.33 in993.2 mb - 0.00 in0.0 mm 0.15 in3.8 mm
04:10 AM 35.9°F2.2°C 30.0°F-1.1°C 79% 5.8 mph WSW9.3 kmh WSW 8.1 mph13.0 kmh 29.33 in993.2 mb - 0.00 in0.0 mm 0.15 in3.8 mm
04:15 AM 35.7°F2.1°C 29.8°F-1.2°C 79% 4.6 mph W7.4 kmh W 9.2 mph14.8 kmh 29.33 in993.2 mb - 0.00 in0.0 mm 0.15 in3.8 mm
04:20 AM 35.7°F2.1°C 29.8°F-1.2°C 79% 3.5 mph WNW5.6 kmh WNW 6.9 mph11.1 kmh 29.33 in993.2 mb - 0.00 in0.0 mm 0.15 in3.8 mm
04:25 AM 35.6°F2.0°C 29.7°F-1.3°C 79% 2.3 mph W3.7 kmh W 6.9 mph11.1 kmh 29.33 in993.2 mb - 0.00 in0.0 mm 0.15 in3.8 mm
04:30 AM 35.5°F1.9°C 29.6°F-1.3°C 79% 1.2 mph N1.9 kmh N 2.3 mph3.7 kmh 29.33 in993.2 mb - 0.00 in0.0 mm 0.15 in3.8 mm
04:35 AM 35.6°F2.0°C 29.7°F-1.3°C 79% 3.5 mph WSW5.6 kmh WSW 5.8 mph9.3 kmh 29.33 in993.2 mb - 0.00 in0.0 mm 0.15 in3.8 mm
04:40 AM 35.7°F2.1°C 29.8°F-1.2°C 79% 2.3 mph NW3.7 kmh NW 3.5 mph5.6 kmh 29.33 in993.2 mb - 0.00 in0.0 mm 0.15 in3.8 mm
04:45 AM 35.7°F2.1°C 29.8°F-1.2°C 79% 4.6 mph NW7.4 kmh NW 8.1 mph13.0 kmh 29.32 in992.9 mb - 0.00 in0.0 mm 0.15 in3.8 mm
04:50 AM 35.7°F2.1°C 29.8°F-1.2°C 79% 4.6 mph W7.4 kmh W 8.1 mph13.0 kmh 29.31 in992.6 mb - 0.00 in0.0 mm 0.15 in3.8 mm
04:55 AM 35.7°F2.1°C 29.8°F-1.2°C 79% 5.8 mph W9.3 kmh W 9.2 mph14.8 kmh 29.32 in992.9 mb - 0.00 in0.0 mm 0.15 in3.8 mm
05:00 AM 35.7°F2.1°C 29.8°F-1.2°C 79% 4.6 mph WSW7.4 kmh WSW 11.5 mph18.5 kmh 29.32 in992.9 mb - 0.00 in0.0 mm 0.15 in3.8 mm
05:05 AM 35.7°F2.1°C 29.5°F-1.4°C 78% 6.9 mph W11.1 kmh W 19.6 mph31.5 kmh 29.32 in992.9 mb - 0.00 in0.0 mm 0.15 in3.8 mm
05:10 AM 35.9°F2.2°C 29.7°F-1.3°C 78% 6.9 mph WSW11.1 kmh WSW 11.5 mph18.5 kmh 29.32 in992.9 mb - 0.00 in0.0 mm 0.15 in3.8 mm
05:15 AM 35.9°F2.2°C 29.7°F-1.3°C 78% 8.1 mph W13.0 kmh W 11.5 mph18.5 kmh 29.32 in992.9 mb - 0.01 in0.3 mm 0.16 in4.1 mm
05:20 AM 35.5°F1.9°C 29.3°F-1.5°C 78% 10.4 mph WSW16.7 kmh WSW 15.0 mph24.1 kmh 29.32 in992.9 mb - 0.00 in0.0 mm 0.16 in4.1 mm
05:25 AM 35.0°F1.7°C 28.8°F-1.8°C 78% 6.9 mph WSW11.1 kmh WSW 11.5 mph18.5 kmh 29.32 in992.9 mb - 0.00 in0.0 mm 0.16 in4.1 mm
05:30 AM 34.7°F1.5°C 28.5°F-1.9°C 78% 4.6 mph NW7.4 kmh NW 12.7 mph20.4 kmh 29.32 in992.9 mb - 0.00 in0.0 mm 0.16 in4.1 mm
05:35 AM 34.5°F1.4°C 28.7°F-1.8°C 79% 10.4 mph W16.7 kmh W 12.7 mph20.4 kmh 29.32 in992.9 mb - 0.00 in0.0 mm 0.16 in4.1 mm
05:40 AM 34.7°F1.5°C 28.9°F-1.7°C 79% 8.1 mph W13.0 kmh W 11.5 mph18.5 kmh 29.32 in992.9 mb - 0.00 in0.0 mm 0.16 in4.1 mm
05:45 AM 34.8°F1.6°C 29.0°F-1.7°C 79% 5.8 mph WSW9.3 kmh WSW 9.2 mph14.8 kmh 29.32 in992.9 mb - 0.00 in0.0 mm 0.16 in4.1 mm
05:50 AM 34.9°F1.6°C 29.0°F-1.7°C 79% 4.6 mph WSW7.4 kmh WSW 6.9 mph11.1 kmh 29.32 in992.9 mb - 0.00 in0.0 mm 0.16 in4.1 mm
05:55 AM 34.8°F1.6°C 29.0°F-1.7°C 79% 5.8 mph WSW9.3 kmh WSW 11.5 mph18.5 kmh 29.32 in992.9 mb - 0.00 in0.0 mm 0.16 in4.1 mm
06:00 AM 34.8°F1.6°C 29.0°F-1.7°C 79% 4.6 mph WSW7.4 kmh WSW 6.9 mph11.1 kmh 29.32 in992.9 mb - 0.00 in0.0 mm 0.16 in4.1 mm
06:05 AM 34.8°F1.6°C 28.9°F-1.7°C 79% 5.8 mph W9.3 kmh W 8.1 mph13.0 kmh 29.31 in992.6 mb - 0.01 in0.3 mm 0.17 in4.3 mm
06:10 AM 34.7°F1.5°C 28.8°F-1.8°C 79% 6.9 mph W11.1 kmh W 11.5 mph18.5 kmh 29.31 in992.6 mb - 0.00 in0.0 mm 0.17 in4.3 mm
06:15 AM 34.5°F1.4°C 28.7°F-1.8°C 79% 5.8 mph W9.3 kmh W 11.5 mph18.5 kmh 29.31 in992.6 mb - 0.00 in0.0 mm 0.17 in4.3 mm
06:20 AM 34.4°F1.3°C 28.6°F-1.9°C 79% 5.8 mph WSW9.3 kmh WSW 9.2 mph14.8 kmh 29.31 in992.6 mb - 0.00 in0.0 mm 0.17 in4.3 mm
06:25 AM 34.3°F1.3°C 28.5°F-1.9°C 79% 6.9 mph W11.1 kmh W 8.1 mph13.0 kmh 29.30 in992.2 mb - 0.00 in0.0 mm 0.17 in4.3 mm
06:30 AM 34.2°F1.2°C 28.4°F-2.0°C 79% 5.8 mph WSW9.3 kmh WSW 9.2 mph14.8 kmh 29.31 in992.6 mb - 0.00 in0.0 mm 0.17 in4.3 mm
06:35 AM 34.0°F1.1°C 28.2°F-2.1°C 79% 3.5 mph WSW5.6 kmh WSW 8.1 mph13.0 kmh 29.31 in992.6 mb - 0.00 in0.0 mm 0.17 in4.3 mm
06:40 AM 33.8°F1.0°C 28.0°F-2.2°C 79% 3.5 mph W5.6 kmh W 3.5 mph5.6 kmh 29.31 in992.6 mb - 0.00 in0.0 mm 0.17 in4.3 mm
06:45 AM 33.7°F0.9°C 27.9°F-2.3°C 79% 5.8 mph WSW9.3 kmh WSW 8.1 mph13.0 kmh 29.31 in992.6 mb - 0.00 in0.0 mm 0.17 in4.3 mm
06:50 AM 33.9°F1.1°C 28.1°F-2.2°C 79% 6.9 mph W11.1 kmh W 9.2 mph14.8 kmh 29.31 in992.6 mb - 0.00 in0.0 mm 0.17 in4.3 mm
06:55 AM 34.2°F1.2°C 28.4°F-2.0°C 79% 10.4 mph WSW16.7 kmh WSW 15.0 mph24.1 kmh 29.31 in992.6 mb - 0.00 in0.0 mm 0.17 in4.3 mm
07:00 AM 33.9°F1.1°C 28.1°F-2.2°C 79% 9.2 mph W14.8 kmh W 13.8 mph22.2 kmh 29.30 in992.2 mb - 0.00 in0.0 mm 0.17 in4.3 mm
07:05 AM 33.6°F0.9°C 27.8°F-2.3°C 79% 8.1 mph W13.0 kmh W 12.7 mph20.4 kmh 29.30 in992.2 mb - 0.00 in0.0 mm 0.17 in4.3 mm
07:10 AM 33.5°F0.8°C 27.7°F-2.4°C 79% 4.6 mph W7.4 kmh W 5.8 mph9.3 kmh 29.30 in992.2 mb - 0.00 in0.0 mm 0.17 in4.3 mm
07:15 AM 33.4°F0.8°C 27.9°F-2.3°C 80% 4.6 mph W7.4 kmh W 6.9 mph11.1 kmh 29.29 in991.9 mb - 0.00 in0.0 mm 0.17 in4.3 mm
07:20 AM 33.3°F0.7°C 27.8°F-2.3°C 80% 4.6 mph WSW7.4 kmh WSW 9.2 mph14.8 kmh 29.29 in991.9 mb - 0.00 in0.0 mm 0.17 in4.3 mm
07:25 AM 33.3°F0.7°C 27.8°F-2.3°C 80% 4.6 mph WSW7.4 kmh WSW 8.1 mph13.0 kmh 29.30 in992.2 mb - 0.00 in0.0 mm 0.17 in4.3 mm
07:30 AM 33.3°F0.7°C 27.8°F-2.3°C 80% 9.2 mph WSW14.8 kmh WSW 17.3 mph27.8 kmh 29.30 in992.2 mb - 0.00 in0.0 mm 0.17 in4.3 mm
07:35 AM 33.5°F0.8°C 28.0°F-2.2°C 80% 11.5 mph WSW18.5 kmh WSW 18.4 mph29.6 kmh 29.30 in992.2 mb - 0.00 in0.0 mm 0.17 in4.3 mm
07:40 AM 33.6°F0.9°C 28.1°F-2.2°C 80% 11.5 mph WSW18.5 kmh WSW 12.7 mph20.4 kmh 29.30 in992.2 mb - 0.00 in0.0 mm 0.17 in4.3 mm
07:45 AM 33.4°F0.8°C 27.9°F-2.3°C 80% 8.1 mph WSW13.0 kmh WSW 12.7 mph20.4 kmh 29.29 in991.9 mb - 0.00 in0.0 mm 0.17 in4.3 mm
07:50 AM 33.3°F0.7°C 27.8°F-2.3°C 80% 8.1 mph WSW13.0 kmh WSW 9.2 mph14.8 kmh 29.29 in991.9 mb - 0.00 in0.0 mm 0.17 in4.3 mm
07:55 AM 33.2°F0.7°C 27.7°F-2.4°C 80% 5.8 mph WSW9.3 kmh WSW 9.2 mph14.8 kmh 29.29 in991.9 mb - 0.00 in0.0 mm 0.17 in4.3 mm
08:00 AM 33.1°F0.6°C 27.6°F-2.4°C 80% 5.8 mph WSW9.3 kmh WSW 8.1 mph13.0 kmh 29.29 in991.9 mb - 0.00 in0.0 mm 0.17 in4.3 mm
08:05 AM 33.0°F0.6°C 27.5°F-2.5°C 80% 5.8 mph W9.3 kmh W 9.2 mph14.8 kmh 29.29 in991.9 mb - 0.00 in0.0 mm 0.17 in4.3 mm
08:10 AM 33.0°F0.6°C 27.5°F-2.5°C 80% 5.8 mph W9.3 kmh W 8.1 mph13.0 kmh 29.29 in991.9 mb - 0.00 in0.0 mm 0.17 in4.3 mm
08:15 AM 33.1°F0.6°C 27.6°F-2.4°C 80% 4.6 mph W7.4 kmh W 9.2 mph14.8 kmh 29.29 in991.9 mb - 0.00 in0.0 mm 0.17 in4.3 mm
08:20 AM 33.2°F0.7°C 28.0°F-2.2°C 81% 6.9 mph WSW11.1 kmh WSW 9.2 mph14.8 kmh 29.29 in991.9 mb - 0.00 in0.0 mm 0.17 in4.3 mm
08:25 AM 33.4°F0.8°C 28.2°F-2.1°C 81% 8.1 mph WSW13.0 kmh WSW 10.4 mph16.7 kmh 29.29 in991.9 mb - 0.01 in0.3 mm 0.17 in4.3 mm
08:30 AM 33.3°F0.7°C 28.1°F-2.2°C 81% 6.9 mph W11.1 kmh W 9.2 mph14.8 kmh 29.29 in991.9 mb - 0.01 in0.3 mm 0.17 in4.3 mm
08:35 AM 33.3°F0.7°C 28.1°F-2.2°C 81% 3.5 mph WNW5.6 kmh WNW 4.6 mph7.4 kmh 29.29 in991.9 mb - 0.00 in0.0 mm 0.17 in4.3 mm
08:40 AM 33.3°F0.7°C 28.1°F-2.2°C 81% 4.6 mph WSW7.4 kmh WSW 8.1 mph13.0 kmh 29.29 in991.9 mb - 0.00 in0.0 mm 0.17 in4.3 mm
08:45 AM 33.3°F0.7°C 28.1°F-2.2°C 81% 4.6 mph WSW7.4 kmh WSW 11.5 mph18.5 kmh 29.29 in991.9 mb - 0.01 in0.3 mm 0.18 in4.6 mm
08:50 AM 33.3°F0.7°C 28.1°F-2.2°C 81% 4.6 mph W7.4 kmh W 9.2 mph14.8 kmh 29.28 in991.5 mb - 0.00 in0.0 mm 0.18 in4.6 mm
08:55 AM 33.2°F0.7°C 28.0°F-2.2°C 81% 3.5 mph WSW5.6 kmh WSW 5.8 mph9.3 kmh 29.28 in991.5 mb - 0.00 in0.0 mm 0.18 in4.6 mm
09:00 AM 33.2°F0.7°C 28.0°F-2.2°C 81% 1.2 mph W1.9 kmh W 2.3 mph3.7 kmh 29.28 in991.5 mb - 0.00 in0.0 mm 0.18 in4.6 mm
09:05 AM 33.1°F0.6°C 27.9°F-2.3°C 81% 2.3 mph W3.7 kmh W 3.5 mph5.6 kmh 29.28 in991.5 mb - 0.00 in0.0 mm 0.18 in4.6 mm
09:10 AM 33.2°F0.7°C 28.0°F-2.2°C 81% 1.2 mph W1.9 kmh W 2.3 mph3.7 kmh 29.28 in991.5 mb - 0.00 in0.0 mm 0.18 in4.6 mm
09:15 AM 33.3°F0.7°C 28.1°F-2.2°C 81% 2.3 mph W3.7 kmh W 2.3 mph3.7 kmh 29.28 in991.5 mb - 0.00 in0.0 mm 0.18 in4.6 mm
09:20 AM 33.3°F0.7°C 28.1°F-2.2°C 81% 1.2 mph NW1.9 kmh NW 2.3 mph3.7 kmh 29.27 in991.2 mb - 0.00 in0.0 mm 0.18 in4.6 mm
09:25 AM 33.3°F0.7°C 28.1°F-2.2°C 81% Calm Calm -- 29.28 in991.5 mb - 0.00 in0.0 mm 0.18 in4.6 mm
09:30 AM 33.6°F0.9°C 28.4°F-2.0°C 81% 1.2 mph W1.9 kmh W 3.5 mph5.6 kmh 29.28 in991.5 mb - 0.01 in0.3 mm 0.19 in4.8 mm
09:35 AM 34.0°F1.1°C 28.8°F-1.8°C 81% Calm Calm -- 29.27 in991.2 mb - 0.01 in0.3 mm 0.20 in5.1 mm
09:40 AM 34.3°F1.3°C 29.1°F-1.6°C 81% 2.3 mph WSW3.7 kmh WSW 9.2 mph14.8 kmh 29.27 in991.2 mb - 0.01 in0.3 mm 0.20 in5.1 mm
09:45 AM 34.7°F1.5°C 29.4°F-1.4°C 81% 8.1 mph WSW13.0 kmh WSW 11.5 mph18.5 kmh 29.27 in991.2 mb - 0.00 in0.0 mm 0.20 in5.1 mm
09:50 AM 35.0°F1.7°C 29.8°F-1.2°C 81% 5.8 mph W9.3 kmh W 12.7 mph20.4 kmh 29.27 in991.2 mb - 0.00 in0.0 mm 0.20 in5.1 mm
09:55 AM 35.1°F1.7°C 29.5°F-1.4°C 80% 4.6 mph W7.4 kmh W 6.9 mph11.1 kmh 29.27 in991.2 mb - 0.00 in0.0 mm 0.20 in5.1 mm
10:00 AM 35.1°F1.7°C 29.6°F-1.3°C 80% 3.5 mph W5.6 kmh W 6.9 mph11.1 kmh 29.27 in991.2 mb - 0.00 in0.0 mm 0.20 in5.1 mm
10:05 AM 35.2°F1.8°C 29.7°F-1.3°C 80% 8.1 mph WSW13.0 kmh WSW 8.1 mph13.0 kmh 29.27 in991.2 mb - 0.00 in0.0 mm 0.20 in5.1 mm
10:10 AM 35.5°F1.9°C 29.9°F-1.2°C 80% 6.9 mph WSW11.1 kmh WSW 11.5 mph18.5 kmh 29.27 in991.2 mb - 0.00 in0.0 mm 0.20 in5.1 mm
10:15 AM 35.6°F2.0°C 30.0°F-1.1°C 80% 4.6 mph W7.4 kmh W 9.2 mph14.8 kmh 29.27 in991.2 mb - 0.00 in0.0 mm 0.20 in5.1 mm
10:20 AM 35.8°F2.1°C 29.9°F-1.2°C 79% 4.6 mph W7.4 kmh W 6.9 mph11.1 kmh 29.27 in991.2 mb - 0.00 in0.0 mm 0.20 in5.1 mm
10:25 AM 35.9°F2.2°C 30.0°F-1.1°C 79% 8.1 mph W13.0 kmh W 11.5 mph18.5 kmh 29.26 in990.9 mb - 0.00 in0.0 mm 0.20 in5.1 mm
10:30 AM 35.9°F2.2°C 30.0°F-1.1°C 79% 8.1 mph W13.0 kmh W 11.5 mph18.5 kmh 29.26 in990.9 mb - 0.00 in0.0 mm 0.20 in5.1 mm
10:35 AM 36.0°F2.2°C 30.1°F-1.1°C 79% 6.9 mph W11.1 kmh W 11.5 mph18.5 kmh 29.26 in990.9 mb - 0.00 in0.0 mm 0.20 in5.1 mm
10:40 AM 36.2°F2.3°C 30.3°F-0.9°C 79% 6.9 mph W11.1 kmh W 10.4 mph16.7 kmh 29.26 in990.9 mb - 0.00 in0.0 mm 0.20 in5.1 mm
10:45 AM 36.4°F2.4°C 30.5°F-0.8°C 79% 5.8 mph WSW9.3 kmh WSW 9.2 mph14.8 kmh 29.26 in990.9 mb - 0.00 in0.0 mm 0.20 in5.1 mm
10:50 AM 36.8°F2.7°C 30.9°F-0.6°C 79% 8.1 mph W13.0 kmh W 11.5 mph18.5 kmh 29.26 in990.9 mb - 0.00 in0.0 mm 0.20 in5.1 mm
10:55 AM 37.1°F2.8°C 30.9°F-0.6°C 78% 6.9 mph WNW11.1 kmh WNW 11.5 mph18.5 kmh 29.26 in990.9 mb - 0.00 in0.0 mm 0.20 in5.1 mm
11:00 AM 37.5°F3.1°C 31.3°F-0.4°C 78% 5.8 mph WSW9.3 kmh WSW 10.4 mph16.7 kmh 29.26 in990.9 mb - 0.00 in0.0 mm 0.20 in5.1 mm
11:05 AM 37.7°F3.2°C 31.5°F-0.3°C 78% 3.5 mph WSW5.6 kmh WSW 3.5 mph5.6 kmh 29.26 in990.9 mb - 0.00 in0.0 mm 0.20 in5.1 mm
11:10 AM 38.1°F3.4°C 31.9°F-0.1°C 78% 5.8 mph SW9.3 kmh SW 6.9 mph11.1 kmh 29.26 in990.9 mb - 0.00 in0.0 mm 0.20 in5.1 mm
11:15 AM 38.6°F3.7°C 32.3°F0.2°C 78% 4.6 mph WSW7.4 kmh WSW 6.9 mph11.1 kmh 29.26 in990.9 mb - 0.00 in0.0 mm 0.20 in5.1 mm
11:20 AM 39.1°F3.9°C 32.8°F0.4°C 78% 5.8 mph SW9.3 kmh SW 6.9 mph11.1 kmh 29.25 in990.5 mb - 0.00 in0.0 mm 0.20 in5.1 mm
11:25 AM 39.2°F4.0°C 32.6°F0.3°C 77% 9.2 mph WSW14.8 kmh WSW 13.8 mph22.2 kmh 29.26 in990.9 mb - 0.00 in0.0 mm 0.20 in5.1 mm
11:30 AM 38.5°F3.6°C 31.9°F-0.1°C 77% 13.8 mph WSW22.2 kmh WSW 17.3 mph27.8 kmh 29.26 in990.9 mb - 0.00 in0.0 mm 0.20 in5.1 mm
11:35 AM 37.7°F3.2°C 31.1°F-0.5°C 77% 9.2 mph WSW14.8 kmh WSW 13.8 mph22.2 kmh 29.26 in990.9 mb - 0.00 in0.0 mm 0.20 in5.1 mm
11:40 AM 37.2°F2.9°C 31.0°F-0.6°C 78% 6.9 mph W11.1 kmh W 8.1 mph13.0 kmh 29.26 in990.9 mb - 0.00 in0.0 mm 0.20 in5.1 mm
11:45 AM 37.1°F2.8°C 30.9°F-0.6°C 78% 6.9 mph W11.1 kmh W 10.4 mph16.7 kmh 29.26 in990.9 mb - 0.00 in0.0 mm 0.20 in5.1 mm
11:50 AM 37.1°F2.8°C 30.9°F-0.6°C 78% 8.1 mph W13.0 kmh W 11.5 mph18.5 kmh 29.26 in990.9 mb - 0.00 in0.0 mm 0.20 in5.1 mm
11:55 AM 36.9°F2.7°C 30.7°F-0.7°C 78% 5.8 mph WSW9.3 kmh WSW 9.2 mph14.8 kmh 29.26 in990.9 mb - 0.00 in0.0 mm 0.20 in5.1 mm
12:00 PM 37.0°F2.8°C 30.8°F-0.7°C 78% 8.1 mph WSW13.0 kmh WSW 11.5 mph18.5 kmh 29.26 in990.9 mb - 0.00 in0.0 mm 0.20 in5.1 mm
12:05 PM 37.1°F2.8°C 30.9°F-0.6°C 78% 6.9 mph W11.1 kmh W 12.7 mph20.4 kmh 29.26 in990.9 mb - 0.00 in0.0 mm 0.20 in5.1 mm
12:10 PM 37.4°F3.0°C 31.2°F-0.4°C 78% 9.2 mph W14.8 kmh W 12.7 mph20.4 kmh 29.26 in990.9 mb - 0.00 in0.0 mm 0.20 in5.1 mm
12:15 PM 37.4°F3.0°C 31.2°F-0.4°C 78% 10.4 mph WSW16.7 kmh WSW 15.0 mph24.1 kmh 29.26 in990.9 mb - 0.00 in0.0 mm 0.20 in5.1 mm
12:20 PM 36.7°F2.6°C 30.5°F-0.8°C 78% 11.5 mph WSW18.5 kmh WSW 17.3 mph27.8 kmh 29.26 in990.9 mb - 0.02 in0.5 mm 0.22 in5.6 mm
12:25 PM 35.9°F2.2°C 29.7°F-1.3°C 78% 10.4 mph WSW16.7 kmh WSW 13.8 mph22.2 kmh 29.26 in990.9 mb - 0.01 in0.3 mm 0.22 in5.6 mm
12:30 PM 35.3°F1.8°C 29.4°F-1.4°C 79% 10.4 mph WSW16.7 kmh WSW 12.7 mph20.4 kmh 29.26 in990.9 mb - 0.01 in0.3 mm 0.23 in5.8 mm
12:35 PM 34.6°F1.4°C 28.7°F-1.8°C 79% 8.1 mph W13.0 kmh W 9.2 mph14.8 kmh 29.25 in990.5 mb - 0.02 in0.5 mm 0.25 in6.4 mm
12:40 PM 34.3°F1.3°C 28.4°F-2.0°C 79% 6.9 mph WSW11.1 kmh WSW 10.4 mph16.7 kmh 29.24 in990.2 mb - 0.01 in0.3 mm 0.25 in6.4 mm
12:45 PM 34.3°F1.3°C 28.8°F-1.8°C 80% 6.9 mph W11.1 kmh W 8.1 mph13.0 kmh 29.24 in990.2 mb - 0.00 in0.0 mm 0.25 in6.4 mm
12:50 PM 34.6°F1.4°C 29.1°F-1.6°C 80% 6.9 mph W11.1 kmh W 9.2 mph14.8 kmh 29.23 in989.8 mb - 0.00 in0.0 mm 0.25 in6.4 mm
12:55 PM 35.1°F1.7°C 29.5°F-1.4°C 80% 6.9 mph WSW11.1 kmh WSW 10.4 mph16.7 kmh 29.23 in989.8 mb - 0.00 in0.0 mm 0.25 in6.4 mm
01:00 PM 35.2°F1.8°C 30.0°F-1.1°C 81% 8.1 mph W13.0 kmh W 11.5 mph18.5 kmh 29.23 in989.8 mb - 0.00 in0.0 mm 0.25 in6.4 mm
01:05 PM 35.8°F2.1°C 30.5°F-0.8°C 81% 5.8 mph WNW9.3 kmh WNW 9.2 mph14.8 kmh 29.23 in989.8 mb - 0.00 in0.0 mm 0.25 in6.4 mm
01:10 PM 36.2°F2.3°C 30.9°F-0.6°C 81% 9.2 mph WSW14.8 kmh WSW 11.5 mph18.5 kmh 29.23 in989.8 mb - 0.00 in0.0 mm 0.25 in6.4 mm
01:15 PM 36.6°F2.6°C 31.3°F-0.4°C 81% 8.1 mph W13.0 kmh W 13.8 mph22.2 kmh 29.23 in989.8 mb - 0.00 in0.0 mm 0.25 in6.4 mm
01:20 PM 36.8°F2.7°C 31.2°F-0.4°C 80% 8.1 mph WSW13.0 kmh WSW 18.4 mph29.6 kmh 29.23 in989.8 mb - 0.00 in0.0 mm 0.25 in6.4 mm
01:25 PM 37.1°F2.8°C 31.5°F-0.3°C 80% 10.4 mph WSW16.7 kmh WSW 16.1 mph25.9 kmh 29.23 in989.8 mb - 0.00 in0.0 mm 0.25 in6.4 mm
01:30 PM 37.2°F2.9°C 31.3°F-0.4°C 79% 12.7 mph WSW20.4 kmh WSW 13.8 mph22.2 kmh 29.23 in989.8 mb - 0.00 in0.0 mm 0.25 in6.4 mm
01:35 PM 37.1°F2.8°C 30.9°F-0.6°C 78% 10.4 mph WSW16.7 kmh WSW 12.7 mph20.4 kmh 29.22 in989.5 mb - 0.00 in0.0 mm 0.25 in6.4 mm
01:40 PM 36.9°F2.7°C 30.7°F-0.7°C 78% 10.4 mph WSW16.7 kmh WSW 19.6 mph31.5 kmh 29.22 in989.5 mb - 0.00 in0.0 mm 0.25 in6.4 mm
01:45 PM 36.4°F2.4°C 30.5°F-0.8°C 79% 9.2 mph WSW14.8 kmh WSW 13.8 mph22.2 kmh 29.22 in989.5 mb - 0.00 in0.0 mm 0.25 in6.4 mm
01:50 PM 36.1°F2.3°C 30.2°F-1.0°C 79% 9.2 mph WSW14.8 kmh WSW 12.7 mph20.4 kmh 29.21 in989.2 mb - 0.00 in0.0 mm 0.25 in6.4 mm
01:55 PM 35.9°F2.2°C 30.1°F-1.1°C 79% 4.6 mph SW7.4 kmh SW 10.4 mph16.7 kmh 29.21 in989.2 mb - 0.00 in0.0 mm 0.25 in6.4 mm
02:00 PM 36.0°F2.2°C 30.1°F-1.1°C 79% 8.1 mph WSW13.0 kmh WSW 10.4 mph16.7 kmh 29.21 in989.2 mb - 0.00 in0.0 mm 0.25 in6.4 mm
02:05 PM 36.3°F2.4°C 30.4°F-0.9°C 79% 5.8 mph WSW9.3 kmh WSW 11.5 mph18.5 kmh 29.21 in989.2 mb - 0.00 in0.0 mm 0.25 in6.4 mm
02:10 PM 36.4°F2.4°C 30.5°F-0.8°C 79% 8.1 mph WSW13.0 kmh WSW 10.4 mph16.7 kmh 29.21 in989.2 mb - 0.00 in0.0 mm 0.25 in6.4 mm
02:15 PM 36.9°F2.7°C 30.7°F-0.7°C 78% 4.6 mph WSW7.4 kmh WSW 6.9 mph11.1 kmh 29.21 in989.2 mb - 0.00 in0.0 mm 0.25 in6.4 mm
02:20 PM 37.4°F3.0°C 31.2°F-0.4°C 78% 3.5 mph WNW5.6 kmh WNW 5.8 mph9.3 kmh 29.20 in988.8 mb - 0.00 in0.0 mm 0.25 in6.4 mm
02:25 PM 37.8°F3.2°C 31.5°F-0.3°C 78% 4.6 mph WNW7.4 kmh WNW 5.8 mph9.3 kmh 29.20 in988.8 mb - 0.00 in0.0 mm 0.25 in6.4 mm
02:30 PM 37.7°F3.2°C 31.5°F-0.3°C 78% 2.3 mph NW3.7 kmh NW 3.5 mph5.6 kmh 29.20 in988.8 mb - 0.00 in0.0 mm 0.25 in6.4 mm
02:35 PM 37.8°F3.2°C 31.6°F-0.2°C 78% 1.2 mph NW1.9 kmh NW 2.3 mph3.7 kmh 29.20 in988.8 mb - 0.00 in0.0 mm 0.25 in6.4 mm
02:40 PM 38.1°F3.4°C 31.8°F-0.1°C 78% 3.5 mph W5.6 kmh W 6.9 mph11.1 kmh 29.20 in988.8 mb - 0.00 in0.0 mm 0.25 in6.4 mm
02:45 PM 38.4°F3.6°C 31.8°F-0.1°C 77% 9.2 mph W14.8 kmh W 15.0 mph24.1 kmh 29.20 in988.8 mb - 0.00 in0.0 mm 0.25 in6.4 mm
02:50 PM 38.7°F3.7°C 32.1°F0.1°C 77% 6.9 mph WSW11.1 kmh WSW 13.8 mph22.2 kmh 29.20 in988.8 mb - 0.00 in0.0 mm 0.25 in6.4 mm
02:55 PM 38.7°F3.7°C 32.1°F0.1°C 77% 10.4 mph W16.7 kmh W 15.0 mph24.1 kmh 29.20 in988.8 mb - 0.00 in0.0 mm 0.25 in6.4 mm
03:00 PM 38.5°F3.6°C 31.9°F-0.1°C 77% 6.9 mph WSW11.1 kmh WSW 11.5 mph18.5 kmh 29.20 in988.8 mb - 0.00 in0.0 mm 0.25 in6.4 mm
03:05 PM 38.6°F3.7°C 32.0°F0.0°C 77% 10.4 mph W16.7 kmh W 17.3 mph27.8 kmh 29.20 in988.8 mb - 0.00 in0.0 mm 0.25 in6.4 mm
03:10 PM 38.7°F3.7°C 32.1°F0.1°C 77% 8.1 mph WSW13.0 kmh WSW 11.5 mph18.5 kmh 29.20 in988.8 mb - 0.00 in0.0 mm 0.25 in6.4 mm
03:15 PM 38.5°F3.6°C 31.9°F-0.1°C 77% 11.5 mph W18.5 kmh W 11.5 mph18.5 kmh 29.20 in988.8 mb - 0.00 in0.0 mm 0.25 in6.4 mm
03:20 PM 38.3°F3.5°C 31.7°F-0.2°C 77% 8.1 mph WSW13.0 kmh WSW 11.5 mph18.5 kmh 29.20 in988.8 mb - 0.00 in0.0 mm 0.25 in6.4 mm
03:25 PM 37.9°F3.3°C 31.3°F-0.4°C 77% 8.1 mph WSW13.0 kmh WSW 11.5 mph18.5 kmh 29.20 in988.8 mb - 0.00 in0.0 mm 0.25 in6.4 mm
03:30 PM 37.9°F3.3°C 31.3°F-0.4°C 77% 11.5 mph WSW18.5 kmh WSW 15.0 mph24.1 kmh 29.20 in988.8 mb - 0.00 in0.0 mm 0.25 in6.4 mm
03:35 PM 37.9°F3.3°C 31.3°F-0.4°C 77% 9.2 mph W14.8 kmh W 11.5 mph18.5 kmh 29.21 in989.2 mb - 0.00 in0.0 mm 0.25 in6.4 mm
03:40 PM 37.9°F3.3°C 31.7°F-0.2°C 78% 8.1 mph W13.0 kmh W 11.5 mph18.5 kmh 29.21 in989.2 mb - 0.00 in0.0 mm 0.25 in6.4 mm
03:45 PM 37.9°F3.3°C 31.3°F-0.4°C 77% 6.9 mph WSW11.1 kmh WSW 10.4 mph16.7 kmh 29.20 in988.8 mb - 0.00 in0.0 mm 0.25 in6.4 mm
03:50 PM 37.8°F3.2°C 31.2°F-0.4°C 77% 4.6 mph W7.4 kmh W 8.1 mph13.0 kmh 29.20 in988.8 mb - 0.00 in0.0 mm 0.25 in6.4 mm
03:55 PM 37.7°F3.2°C 31.5°F-0.3°C 78% 4.6 mph W7.4 kmh W 8.1 mph13.0 kmh 29.20 in988.8 mb - 0.00 in0.0 mm 0.25 in6.4 mm
04:00 PM 37.6°F3.1°C 31.4°F-0.3°C 78% 4.6 mph WSW7.4 kmh WSW 6.9 mph11.1 kmh 29.20 in988.8 mb - 0.00 in0.0 mm 0.25 in6.4 mm
04:05 PM 37.5°F3.1°C 31.3°F-0.4°C 78% 3.5 mph WSW5.6 kmh WSW 5.8 mph9.3 kmh 29.20 in988.8 mb - 0.00 in0.0 mm 0.25 in6.4 mm
04:10 PM 37.3°F2.9°C 31.1°F-0.5°C 78% 2.3 mph WSW3.7 kmh WSW 3.5 mph5.6 kmh 29.20 in988.8 mb - 0.00 in0.0 mm 0.25 in6.4 mm
04:15 PM 37.0°F2.8°C 30.8°F-0.7°C 78% 1.2 mph WSW1.9 kmh WSW 2.3 mph3.7 kmh 29.19 in988.5 mb - 0.00 in0.0 mm 0.25 in6.4 mm
04:20 PM 36.8°F2.7°C 30.6°F-0.8°C 78% 2.3 mph WSW3.7 kmh WSW 3.5 mph5.6 kmh 29.20 in988.8 mb - 0.00 in0.0 mm 0.25 in6.4 mm
04:25 PM 36.5°F2.5°C 30.3°F-0.9°C 78% 2.3 mph WSW3.7 kmh WSW 3.5 mph5.6 kmh 29.20 in988.8 mb - 0.00 in0.0 mm 0.25 in6.4 mm
04:30 PM 36.2°F2.3°C 30.0°F-1.1°C 78% 2.3 mph W3.7 kmh W 3.5 mph5.6 kmh 29.20 in988.8 mb - 0.00 in0.0 mm 0.25 in6.4 mm
04:35 PM 35.9°F2.2°C 29.7°F-1.3°C 78% 3.5 mph WSW5.6 kmh WSW 3.5 mph5.6 kmh 29.19 in988.5 mb - 0.00 in0.0 mm 0.25 in6.4 mm
04:40 PM 35.7°F2.1°C 29.5°F-1.4°C 78% 3.5 mph WSW5.6 kmh WSW 3.5 mph5.6 kmh 29.19 in988.5 mb - 0.00 in0.0 mm 0.25 in6.4 mm
04:45 PM 35.5°F1.9°C 29.3°F-1.5°C 78% 3.5 mph W5.6 kmh W 5.8 mph9.3 kmh 29.19 in988.5 mb - 0.00 in0.0 mm 0.25 in6.4 mm
04:50 PM 35.3°F1.8°C 29.1°F-1.6°C 78% 5.8 mph W9.3 kmh W 9.2 mph14.8 kmh 29.19 in988.5 mb - 0.00 in0.0 mm 0.25 in6.4 mm
04:55 PM 35.4°F1.9°C 29.2°F-1.6°C 78% 8.1 mph W13.0 kmh W 11.5 mph18.5 kmh 29.20 in988.8 mb - 0.00 in0.0 mm 0.25 in6.4 mm
05:00 PM 35.6°F2.0°C 29.4°F-1.4°C 78% 8.1 mph WNW13.0 kmh WNW 12.7 mph20.4 kmh 29.20 in988.8 mb - 0.00 in0.0 mm 0.25 in6.4 mm
05:05 PM 35.8°F2.1°C 29.6°F-1.3°C 78% 8.1 mph W13.0 kmh W 11.5 mph18.5 kmh 29.20 in988.8 mb - 0.00 in0.0 mm 0.25 in6.4 mm
05:10 PM 35.9°F2.2°C 29.7°F-1.3°C 78% 6.9 mph W11.1 kmh W 9.2 mph14.8 kmh 29.20 in988.8 mb - 0.00 in0.0 mm 0.25 in6.4 mm
05:15 PM 35.9°F2.2°C 29.4°F-1.4°C 77% 4.6 mph WNW7.4 kmh WNW 5.8 mph9.3 kmh 29.20 in988.8 mb - 0.00 in0.0 mm 0.25 in6.4 mm
05:20 PM 35.7°F2.1°C 29.5°F-1.4°C 78% 5.8 mph W9.3 kmh W 9.2 mph14.8 kmh 29.20 in988.8 mb - 0.00 in0.0 mm 0.25 in6.4 mm
05:25 PM 35.6°F2.0°C 29.4°F-1.4°C 78% 5.8 mph W9.3 kmh W 10.4 mph16.7 kmh 29.20 in988.8 mb - 0.00 in0.0 mm 0.25 in6.4 mm
05:30 PM 35.5°F1.9°C 29.3°F-1.5°C 78% 3.5 mph W5.6 kmh W 8.1 mph13.0 kmh 29.20 in988.8 mb - 0.00 in0.0 mm 0.25 in6.4 mm
05:35 PM 35.5°F1.9°C 29.3°F-1.5°C 78% 3.5 mph WSW5.6 kmh WSW 8.1 mph13.0 kmh 29.20 in988.8 mb - 0.00 in0.0 mm 0.25 in6.4 mm
05:40 PM 35.5°F1.9°C 29.3°F-1.5°C 78% 4.6 mph W7.4 kmh W 9.2 mph14.8 kmh 29.20 in988.8 mb - 0.00 in0.0 mm 0.25 in6.4 mm
05:45 PM 35.5°F1.9°C 29.3°F-1.5°C 78% 5.8 mph W9.3 kmh W 9.2 mph14.8 kmh 29.20 in988.8 mb - 0.00 in0.0 mm 0.25 in6.4 mm
05:50 PM 35.7°F2.1°C 29.5°F-1.4°C 78% 4.6 mph WSW7.4 kmh WSW 8.1 mph13.0 kmh 29.21 in989.2 mb - 0.00 in0.0 mm 0.25 in6.4 mm
05:55 PM 35.7°F2.1°C 29.5°F-1.4°C 78% 3.5 mph SW5.6 kmh SW 3.5 mph5.6 kmh 29.21 in989.2 mb - 0.00 in0.0 mm 0.25 in6.4 mm
06:00 PM 35.4°F1.9°C 29.3°F-1.5°C 78% 4.6 mph W7.4 kmh W 11.5 mph18.5 kmh 29.21 in989.2 mb - 0.00 in0.0 mm 0.25 in6.4 mm
06:05 PM 35.6°F2.0°C 29.4°F-1.4°C 78% 5.8 mph W9.3 kmh W 9.2 mph14.8 kmh 29.21 in989.2 mb - 0.00 in0.0 mm 0.25 in6.4 mm
06:10 PM 35.9°F2.2°C 29.7°F-1.3°C 78% 6.9 mph W11.1 kmh W 10.4 mph16.7 kmh 29.21 in989.2 mb - 0.00 in0.0 mm 0.25 in6.4 mm
06:15 PM 36.1°F2.3°C 29.9°F-1.2°C 78% 3.5 mph W5.6 kmh W 6.9 mph11.1 kmh 29.21 in989.2 mb - 0.00 in0.0 mm 0.25 in6.4 mm
06:20 PM 36.1°F2.3°C 29.9°F-1.2°C 78% 5.8 mph W9.3 kmh W 8.1 mph13.0 kmh 29.21 in989.2 mb - 0.00 in0.0 mm 0.25 in6.4 mm
06:25 PM 36.3°F2.4°C 30.1°F-1.1°C 78% 4.6 mph WSW7.4 kmh WSW 4.6 mph7.4 kmh 29.22 in989.5 mb - 0.00 in0.0 mm 0.25 in6.4 mm
06:30 PM 36.5°F2.5°C 30.3°F-0.9°C 78% 6.9 mph W11.1 kmh W 9.2 mph14.8 kmh 29.22 in989.5 mb - 0.00 in0.0 mm 0.25 in6.4 mm
06:35 PM 36.5°F2.5°C 30.3°F-0.9°C 78% 9.2 mph W14.8 kmh W 12.7 mph20.4 kmh 29.22 in989.5 mb - 0.00 in0.0 mm 0.25 in6.4 mm
06:40 PM 36.6°F2.6°C 30.4°F-0.9°C 78% 6.9 mph W11.1 kmh W 10.4 mph16.7 kmh 29.22 in989.5 mb - 0.00 in0.0 mm 0.25 in6.4 mm
06:45 PM 36.6°F2.6°C 30.4°F-0.9°C 78% 8.1 mph W13.0 kmh W 8.1 mph13.0 kmh 29.23 in989.8 mb - 0.00 in0.0 mm 0.25 in6.4 mm
06:50 PM 36.6°F2.6°C 30.4°F-0.9°C 78% 8.1 mph W13.0 kmh W 11.5 mph18.5 kmh 29.23 in989.8 mb - 0.00 in0.0 mm 0.25 in6.4 mm
06:55 PM 36.6°F2.6°C 30.4°F-0.9°C 78% 5.8 mph WNW9.3 kmh WNW 10.4 mph16.7 kmh 29.23 in989.8 mb - 0.00 in0.0 mm 0.25 in6.4 mm
07:00 PM 36.4°F2.4°C 30.2°F-1.0°C 78% 5.8 mph W9.3 kmh W 11.5 mph18.5 kmh 29.23 in989.8 mb - 0.00 in0.0 mm 0.25 in6.4 mm
07:05 PM 36.3°F2.4°C 30.1°F-1.1°C 78% 8.1 mph W13.0 kmh W 11.5 mph18.5 kmh 29.23 in989.8 mb - 0.00 in0.0 mm 0.25 in6.4 mm
07:10 PM 36.2°F2.3°C 30.0°F-1.1°C 78% 6.9 mph W11.1 kmh W 10.4 mph16.7 kmh 29.23 in989.8 mb - 0.00 in0.0 mm 0.25 in6.4 mm
07:15 PM 36.3°F2.4°C 30.1°F-1.1°C 78% 5.8 mph NW9.3 kmh NW 13.8 mph22.2 kmh 29.24 in990.2 mb - 0.00 in0.0 mm 0.25 in6.4 mm
07:20 PM 36.4°F2.4°C 30.2°F-1.0°C 78% 8.1 mph NW13.0 kmh NW 11.5 mph18.5 kmh 29.24 in990.2 mb - 0.00 in0.0 mm 0.25 in6.4 mm
07:25 PM 36.2°F2.3°C 30.0°F-1.1°C 78% 6.9 mph WNW11.1 kmh WNW 9.2 mph14.8 kmh 29.25 in990.5 mb - 0.00 in0.0 mm 0.25 in6.4 mm
07:30 PM 36.2°F2.3°C 30.0°F-1.1°C 78% 8.1 mph WNW13.0 kmh WNW 9.2 mph14.8 kmh 29.25 in990.5 mb - 0.00 in0.0 mm 0.25 in6.4 mm
07:35 PM 36.3°F2.4°C 30.1°F-1.1°C 78% 6.9 mph W11.1 kmh W 11.5 mph18.5 kmh 29.25 in990.5 mb - 0.00 in0.0 mm 0.25 in6.4 mm
07:40 PM 36.3°F2.4°C 30.1°F-1.1°C 78% 6.9 mph WNW11.1 kmh WNW 9.2 mph14.8 kmh 29.25 in990.5 mb - 0.00 in0.0 mm 0.25 in6.4 mm
07:45 PM 36.2°F2.3°C 30.0°F-1.1°C 78% 5.8 mph NW9.3 kmh NW 8.1 mph13.0 kmh 29.25 in990.5 mb - 0.00 in0.0 mm 0.25 in6.4 mm
07:50 PM 36.1°F2.3°C 29.9°F-1.2°C 78% 5.8 mph W9.3 kmh W 9.2 mph14.8 kmh 29.25 in990.5 mb - 0.00 in0.0 mm 0.25 in6.4 mm
07:55 PM 36.1°F2.3°C 29.9°F-1.2°C 78% 4.6 mph WNW7.4 kmh WNW 3.5 mph5.6 kmh 29.26 in990.9 mb - 0.00 in0.0 mm 0.25 in6.4 mm
08:00 PM 35.9°F2.2°C 29.7°F-1.3°C 78% 3.5 mph NW5.6 kmh NW 5.8 mph9.3 kmh 29.26 in990.9 mb - 0.00 in0.0 mm 0.25 in6.4 mm
08:05 PM 35.6°F2.0°C 29.4°F-1.4°C 78% 2.3 mph WSW3.7 kmh WSW 3.5 mph5.6 kmh 29.26 in990.9 mb - 0.00 in0.0 mm 0.25 in6.4 mm
08:10 PM 35.3°F1.8°C 29.1°F-1.6°C 78% 2.3 mph WSW3.7 kmh WSW 3.5 mph5.6 kmh 29.26 in990.9 mb - 0.00 in0.0 mm 0.25 in6.4 mm
08:15 PM 35.0°F1.7°C 28.9°F-1.7°C 78% 1.2 mph WSW1.9 kmh WSW 2.3 mph3.7 kmh 29.27 in991.2 mb - 0.00 in0.0 mm 0.25 in6.4 mm
08:20 PM 34.7°F1.5°C 28.6°F-1.9°C 78% Calm Calm -- 29.27 in991.2 mb - 0.00 in0.0 mm 0.25 in6.4 mm
08:25 PM 34.4°F1.3°C 28.3°F-2.1°C 78% 2.3 mph WSW3.7 kmh WSW 3.5 mph5.6 kmh 29.27 in991.2 mb - 0.00 in0.0 mm 0.25 in6.4 mm
08:30 PM 34.2°F1.2°C 28.1°F-2.2°C 78% 2.3 mph SE3.7 kmh SE 3.5 mph5.6 kmh 29.27 in991.2 mb - 0.00 in0.0 mm 0.25 in6.4 mm
08:35 PM 34.1°F1.2°C 28.0°F-2.2°C 78% 2.3 mph E3.7 kmh E 3.5 mph5.6 kmh 29.27 in991.2 mb - 0.00 in0.0 mm 0.25 in6.4 mm
08:40 PM 34.0°F1.1°C 28.2°F-2.1°C 79% 2.3 mph E3.7 kmh E 3.5 mph5.6 kmh 29.28 in991.5 mb - 0.00 in0.0 mm 0.25 in6.4 mm
08:45 PM 33.9°F1.1°C 28.1°F-2.2°C 79% 1.2 mph E1.9 kmh E 2.3 mph3.7 kmh 29.28 in991.5 mb - 0.00 in0.0 mm 0.25 in6.4 mm
08:50 PM 34.2°F1.2°C 28.4°F-2.0°C 79% 2.3 mph E3.7 kmh E 3.5 mph5.6 kmh 29.28 in991.5 mb - 0.00 in0.0 mm 0.25 in6.4 mm
08:55 PM 34.5°F1.4°C 28.7°F-1.8°C 79% Calm Calm 1.2 mph1.9 kmh 29.29 in991.9 mb - 0.00 in0.0 mm 0.25 in6.4 mm
09:00 PM 34.5°F1.4°C 28.7°F-1.8°C 79% 1.2 mph W1.9 kmh W 2.3 mph3.7 kmh 29.29 in991.9 mb - 0.00 in0.0 mm 0.25 in6.4 mm
09:05 PM 34.5°F1.4°C 28.7°F-1.8°C 79% 2.3 mph W3.7 kmh W 3.5 mph5.6 kmh 29.29 in991.9 mb - 0.00 in0.0 mm 0.25 in6.4 mm
09:10 PM 34.4°F1.3°C 28.6°F-1.9°C 79% 3.5 mph W5.6 kmh W 3.5 mph5.6 kmh 29.29 in991.9 mb - 0.00 in0.0 mm 0.25 in6.4 mm
09:15 PM 34.4°F1.3°C 28.6°F-1.9°C 79% 4.6 mph W7.4 kmh W 6.9 mph11.1 kmh 29.29 in991.9 mb - 0.00 in0.0 mm 0.25 in6.4 mm
09:20 PM 34.6°F1.4°C 28.8°F-1.8°C 79% 6.9 mph W11.1 kmh W 11.5 mph18.5 kmh 29.29 in991.9 mb - 0.00 in0.0 mm 0.25 in6.4 mm
09:25 PM 35.2°F1.8°C 29.3°F-1.5°C 79% 5.8 mph W9.3 kmh W 11.5 mph18.5 kmh 29.29 in991.9 mb - 0.00 in0.0 mm 0.25 in6.4 mm
09:30 PM 35.8°F2.1°C 29.6°F-1.3°C 78% 6.9 mph W11.1 kmh W 9.2 mph14.8 kmh 29.29 in991.9 mb - 0.00 in0.0 mm 0.25 in6.4 mm
09:35 PM 36.1°F2.3°C 29.9°F-1.2°C 78% 6.9 mph W11.1 kmh W 11.5 mph18.5 kmh 29.29 in991.9 mb - 0.00 in0.0 mm 0.25 in6.4 mm
09:40 PM 36.2°F2.3°C 30.0°F-1.1°C 78% 6.9 mph W11.1 kmh W 9.2 mph14.8 kmh 29.29 in991.9 mb - 0.00 in0.0 mm 0.25 in6.4 mm
09:45 PM 36.2°F2.3°C 30.0°F-1.1°C 78% 8.1 mph W13.0 kmh W 10.4 mph16.7 kmh 29.30 in992.2 mb - 0.00 in0.0 mm 0.25 in6.4 mm
09:50 PM 36.2°F2.3°C 30.0°F-1.1°C 78% 6.9 mph W11.1 kmh W 10.4 mph16.7 kmh 29.30 in992.2 mb - 0.00 in0.0 mm 0.25 in6.4 mm
09:55 PM 36.0°F2.2°C 29.8°F-1.2°C 78% 5.8 mph W9.3 kmh W 10.4 mph16.7 kmh 29.30 in992.2 mb - 0.00 in0.0 mm 0.25 in6.4 mm
10:00 PM 35.9°F2.2°C 29.7°F-1.3°C 78% 5.8 mph W9.3 kmh W 6.9 mph11.1 kmh 29.30 in992.2 mb - 0.00 in0.0 mm 0.25 in6.4 mm
10:05 PM 35.8°F2.1°C 29.3°F-1.5°C 77% 3.5 mph W5.6 kmh W 5.8 mph9.3 kmh 29.30 in992.2 mb - 0.00 in0.0 mm 0.25 in6.4 mm
10:10 PM 35.5°F1.9°C 29.3°F-1.5°C 78% 5.8 mph WNW9.3 kmh WNW 8.1 mph13.0 kmh 29.30 in992.2 mb - 0.00 in0.0 mm 0.25 in6.4 mm
10:15 PM 35.3°F1.8°C 29.1°F-1.6°C 78% 4.6 mph NW7.4 kmh NW 10.4 mph16.7 kmh 29.30 in992.2 mb - 0.00 in0.0 mm 0.25 in6.4 mm
10:20 PM 35.5°F1.9°C 29.3°F-1.5°C 78% 8.1 mph NW13.0 kmh NW 11.5 mph18.5 kmh 29.30 in992.2 mb - 0.00 in0.0 mm 0.25 in6.4 mm
10:25 PM 35.8°F2.1°C 29.2°F-1.6°C 77% 4.6 mph NW7.4 kmh NW 8.1 mph13.0 kmh 29.30 in992.2 mb - 0.00 in0.0 mm 0.25 in6.4 mm
10:30 PM 36.1°F2.3°C 29.9°F-1.2°C 78% 8.1 mph WNW13.0 kmh WNW 10.4 mph16.7 kmh 29.30 in992.2 mb - 0.00 in0.0 mm 0.25 in6.4 mm
10:35 PM 36.1°F2.3°C 29.6°F-1.3°C 77% 4.6 mph WNW7.4 kmh WNW 8.1 mph13.0 kmh 29.30 in992.2 mb - 0.00 in0.0 mm 0.25 in6.4 mm
10:40 PM 36.0°F2.2°C 29.8°F-1.2°C 78% 2.3 mph WSW3.7 kmh WSW 3.5 mph5.6 kmh 29.31 in992.6 mb - 0.00 in0.0 mm 0.25 in6.4 mm
10:45 PM 35.5°F1.9°C 29.3°F-1.5°C 78% Calm Calm 1.2 mph1.9 kmh 29.31 in992.6 mb - 0.00 in0.0 mm 0.25 in6.4 mm
10:50 PM 35.0°F1.7°C 28.8°F-1.8°C 78% 1.2 mph WSW1.9 kmh WSW 2.3 mph3.7 kmh 29.31 in992.6 mb - 0.00 in0.0 mm 0.25 in6.4 mm
10:55 PM 34.6°F1.4°C 28.4°F-2.0°C 78% Calm Calm -- 29.31 in992.6 mb - 0.00 in0.0 mm 0.25 in6.4 mm
11:00 PM 34.1°F1.2°C 28.0°F-2.2°C 78% 2.3 mph WNW3.7 kmh WNW 4.6 mph7.4 kmh 29.31 in992.6 mb - 0.00 in0.0 mm 0.25 in6.4 mm
11:05 PM 33.6°F0.9°C 27.5°F-2.5°C 78% 3.5 mph W5.6 kmh W 11.5 mph18.5 kmh 29.32 in992.9 mb - 0.00 in0.0 mm 0.25 in6.4 mm
11:10 PM 34.1°F1.2°C 28.0°F-2.2°C 78% 8.1 mph W13.0 kmh W 11.5 mph18.5 kmh 29.32 in992.9 mb - 0.00 in0.0 mm 0.25 in6.4 mm
11:15 PM 35.2°F1.8°C 29.0°F-1.7°C 78% 6.9 mph WNW11.1 kmh WNW 12.7 mph20.4 kmh 29.32 in992.9 mb - 0.00 in0.0 mm 0.25 in6.4 mm
11:20 PM 36.1°F2.3°C 29.6°F-1.3°C 77% 10.4 mph NW16.7 kmh NW 16.1 mph25.9 kmh 29.33 in993.2 mb - 0.00 in0.0 mm 0.25 in6.4 mm
11:25 PM 37.0°F2.8°C 30.2°F-1.0°C 76% 11.5 mph WNW18.5 kmh WNW 15.0 mph24.1 kmh 29.33 in993.2 mb - 0.00 in0.0 mm 0.25 in6.4 mm
11:30 PM 37.3°F2.9°C 30.1°F-1.1°C 75% 11.5 mph WNW18.5 kmh WNW 13.8 mph22.2 kmh 29.33 in993.2 mb - 0.00 in0.0 mm 0.25 in6.4 mm
11:35 PM 37.2°F2.9°C 30.0°F-1.1°C 75% 11.5 mph NW18.5 kmh NW 17.3 mph27.8 kmh 29.33 in993.2 mb - 0.00 in0.0 mm 0.25 in6.4 mm
11:40 PM 37.3°F2.9°C 30.1°F-1.1°C 75% 11.5 mph WNW18.5 kmh WNW 12.7 mph20.4 kmh 29.33 in993.2 mb - 0.00 in0.0 mm 0.25 in6.4 mm
11:45 PM 37.0°F2.8°C 30.2°F-1.0°C 76% 9.2 mph W14.8 kmh W 13.8 mph22.2 kmh 29.33 in993.2 mb - 0.00 in0.0 mm 0.25 in6.4 mm
11:50 PM 37.0°F2.8°C 30.1°F-1.1°C 76% 10.4 mph W16.7 kmh W 15.0 mph24.1 kmh 29.33 in993.2 mb - 0.00 in0.0 mm 0.25 in6.4 mm
11:55 PM 37.1°F2.8°C 30.2°F-1.0°C 76% 8.1 mph WNW13.0 kmh WNW 11.5 mph18.5 kmh 29.33 in993.2 mb - 0.00 in0.0 mm 0.25 in6.4 mm